createdAt,value
2023-05-08T00:00:31.076Z,12.27
2023-05-08T00:02:58.054Z,13.53
2023-05-08T00:05:25.092Z,13.50
2023-05-08T00:07:53.551Z,13.50
2023-05-08T00:10:20.320Z,14.10
2023-05-08T00:12:47.192Z,14.77
2023-05-08T00:15:13.913Z,18.50
2023-05-08T00:17:41.029Z,15.93
2023-05-08T00:20:08.848Z,13.63
2023-05-08T00:22:35.846Z,14.27
2023-05-08T00:25:04.395Z,13.97
2023-05-08T00:27:31.815Z,13.60
2023-05-08T00:29:58.943Z,14.53
2023-05-08T00:32:26.017Z,14.87
2023-05-08T00:34:52.946Z,15.53
2023-05-08T00:37:19.789Z,13.97
2023-05-08T00:39:46.700Z,14.73
2023-05-08T00:42:13.636Z,16.37
2023-05-08T00:44:41.255Z,14.33
2023-05-08T00:47:08.994Z,15.67
2023-05-08T00:49:36.248Z,15.50
2023-05-08T00:52:08.611Z,16.37
2023-05-08T00:54:39.046Z,15.63
2023-05-08T00:57:09.347Z,14.77
2023-05-08T00:59:37.285Z,15.40
2023-05-08T01:02:05.170Z,14.37
2023-05-08T01:04:33.288Z,14.73
2023-05-08T01:07:03.920Z,14.27
2023-05-08T01:09:30.818Z,14.43
2023-05-08T01:12:15.356Z,15.87
2023-05-08T01:14:55.339Z,16.87
2023-05-08T01:17:39.135Z,14.03
2023-05-08T01:20:30.043Z,13.13
2023-05-08T01:23:18.052Z,14.47
2023-05-08T01:26:05.010Z,15.73
2023-05-08T01:29:16.355Z,13.97
2023-05-08T01:32:10.093Z,14.50
2023-05-08T01:34:46.320Z,14.93
2023-05-08T01:37:17.013Z,14.17
2023-05-08T01:39:59.024Z,13.90
2023-05-08T01:42:49.359Z,13.43
2023-05-08T01:45:32.202Z,13.63
2023-05-08T01:48:08.918Z,13.00
2023-05-08T01:50:45.644Z,14.17
2023-05-08T01:53:36.806Z,16.63
2023-05-08T01:56:12.041Z,13.67
2023-05-08T01:58:40.045Z,15.93
2023-05-08T02:01:08.144Z,14.87
2023-05-08T02:03:36.697Z,16.93
2023-05-08T02:06:05.272Z,15.70
2023-05-08T02:08:33.327Z,16.90
2023-05-08T02:11:01.766Z,17.47
2023-05-08T02:13:30.271Z,17.93
2023-05-08T02:15:58.281Z,15.90
2023-05-08T02:18:26.281Z,18.83
2023-05-08T02:20:54.842Z,17.87
2023-05-08T02:23:24.592Z,19.93
2023-05-08T02:25:53.249Z,19.50
2023-05-08T02:28:21.665Z,19.10
2023-05-08T02:30:50.232Z,19.57
2023-05-08T02:33:18.438Z,20.47
2023-05-08T02:35:46.880Z,18.23
2023-05-08T02:38:15.716Z,19.17
2023-05-08T02:40:47.293Z,16.90
2023-05-08T02:43:14.471Z,18.70
2023-05-08T02:45:54.806Z,21.20
2023-05-08T02:48:30.711Z,19.23
2023-05-08T02:51:04.864Z,20.87
2023-05-08T02:53:52.246Z,16.93
2023-05-08T02:56:43.448Z,18.33
2023-05-08T02:59:19.039Z,17.43
2023-05-08T03:02:05.617Z,16.30
2023-05-08T03:04:41.914Z,19.90
2023-05-08T03:07:09.087Z,18.60
2023-05-08T03:09:50.756Z,18.40
2023-05-08T03:12:26.894Z,19.00
2023-05-08T03:15:02.356Z,17.23
2023-05-08T03:17:32.672Z,18.87
2023-05-08T03:20:03.635Z,17.43
2023-05-08T03:22:33.113Z,16.97
2023-05-08T03:25:01.510Z,17.23
2023-05-08T03:27:30.224Z,18.47
2023-05-08T03:29:59.495Z,18.13
2023-05-08T03:32:28.320Z,19.50
2023-05-08T03:34:58.724Z,18.90
2023-05-08T03:37:28.052Z,18.70
2023-05-08T03:39:56.122Z,18.17
2023-05-08T03:42:24.468Z,18.27
2023-05-08T03:44:52.289Z,18.27
2023-05-08T03:47:20.283Z,18.10
2023-05-08T03:49:49.388Z,18.50
2023-05-08T03:52:16.839Z,17.67
2023-05-08T03:54:43.844Z,20.07
2023-05-08T03:57:10.819Z,20.47
2023-05-08T03:59:53.222Z,19.73
2023-05-08T04:02:39.379Z,17.10
2023-05-08T04:05:43.511Z,18.07
2023-05-08T04:08:17.428Z,18.80
2023-05-08T04:10:59.464Z,20.07
2023-05-08T04:13:31.140Z,17.93
2023-05-08T04:16:17.420Z,17.50
2023-05-08T04:18:49.800Z,18.23
2023-05-08T04:21:23.478Z,17.57
2023-05-08T04:23:51.556Z,17.90
2023-05-08T04:26:19.095Z,21.27
2023-05-08T04:28:49.110Z,16.43
2023-05-08T04:31:17.226Z,16.70
2023-05-08T04:33:47.696Z,15.40
2023-05-08T04:36:14.856Z,15.50
2023-05-08T04:38:41.768Z,12.20
2023-05-08T04:41:08.909Z,12.03
2023-05-08T04:43:36.795Z,12.40
2023-05-08T04:46:06.174Z,11.37
2023-05-08T04:48:34.053Z,11.50
2023-05-08T04:51:01.075Z,9.43
2023-05-08T04:53:28.035Z,9.07
2023-05-08T04:55:54.879Z,8.17
2023-05-08T04:58:21.743Z,8.57
2023-05-08T05:00:49.086Z,8.63
2023-05-08T05:03:16.081Z,9.17
2023-05-08T05:05:43.074Z,8.77
2023-05-08T05:08:09.885Z,7.90
2023-05-08T05:10:38.995Z,11.27
2023-05-08T05:13:06.071Z,9.20
2023-05-08T05:15:32.978Z,8.97
2023-05-08T05:17:59.852Z,9.67
2023-05-08T05:20:26.674Z,10.50
2023-05-08T05:22:53.449Z,9.53
2023-05-08T05:25:20.336Z,10.40
2023-05-08T05:27:47.212Z,10.67
2023-05-08T05:30:14.414Z,11.47
2023-05-08T05:32:41.558Z,10.27
2023-05-08T05:35:09.738Z,10.20
2023-05-08T05:37:36.650Z,11.40
2023-05-08T05:40:06.027Z,11.60
2023-05-08T05:42:32.868Z,11.87
2023-05-08T05:44:59.732Z,12.10
2023-05-08T05:47:26.931Z,12.17
2023-05-08T05:49:53.720Z,13.03
2023-05-08T05:52:20.535Z,12.60
2023-05-08T05:54:47.604Z,12.73
2023-05-08T05:57:14.716Z,12.70
2023-05-08T05:59:41.601Z,13.00
2023-05-08T06:02:10.581Z,13.33
2023-05-08T06:04:37.531Z,13.17
2023-05-08T06:07:04.325Z,15.00
2023-05-08T06:09:31.234Z,15.07
2023-05-08T06:11:58.031Z,16.33
2023-05-08T06:14:24.877Z,14.93
2023-05-08T06:16:51.974Z,16.93
2023-05-08T06:19:18.817Z,17.20
2023-05-08T06:21:45.627Z,17.53
2023-05-08T06:24:12.397Z,21.40
2023-05-08T06:26:39.226Z,20.90
2023-05-08T06:29:06.202Z,21.47
2023-05-08T06:31:33.152Z,24.57
2023-05-08T06:34:00.138Z,23.77
2023-05-08T06:36:27.314Z,27.53
2023-05-08T06:38:54.229Z,34.60
2023-05-08T06:41:21.838Z,31.73
2023-05-08T06:43:48.632Z,31.90
2023-05-08T06:46:16.160Z,31.33
2023-05-08T06:48:43.026Z,33.60
2023-05-08T06:51:09.878Z,32.53
2023-05-08T06:53:36.663Z,32.40
2023-05-08T06:56:03.481Z,36.07
2023-05-08T06:58:32.172Z,36.67
2023-05-08T07:01:02.078Z,33.73
2023-05-08T07:03:28.993Z,29.13
2023-05-08T07:05:56.337Z,25.50
2023-05-08T07:08:23.180Z,20.83
2023-05-08T07:10:49.959Z,24.23
2023-05-08T07:13:21.710Z,24.23
2023-05-08T07:15:48.743Z,25.73
2023-05-08T07:18:15.652Z,23.07
2023-05-08T07:20:42.531Z,24.97
2023-05-08T07:23:09.994Z,26.63
2023-05-08T07:25:36.948Z,23.93
2023-05-08T07:28:04.010Z,25.50
2023-05-08T07:30:30.947Z,26.00
2023-05-08T07:32:57.803Z,21.70
2023-05-08T07:35:24.725Z,24.20
2023-05-08T07:37:51.540Z,23.10
2023-05-08T07:40:18.634Z,23.67
2023-05-08T07:42:45.624Z,21.87
2023-05-08T07:45:14.170Z,25.47
2023-05-08T07:47:55.906Z,25.53
2023-05-08T07:50:23.871Z,23.50
2023-05-08T07:52:51.239Z,25.83
2023-05-08T07:55:18.924Z,25.27
2023-05-08T07:57:46.317Z,22.67
2023-05-08T08:00:14.858Z,25.03
2023-05-08T08:02:42.971Z,26.10
2023-05-08T08:05:10.265Z,26.37
2023-05-08T08:07:37.447Z,22.33
2023-05-08T08:10:05.059Z,25.67
2023-05-08T08:12:32.083Z,24.80
2023-05-08T08:14:58.933Z,23.20
2023-05-08T08:17:28.427Z,25.43
2023-05-08T08:19:55.878Z,27.17
2023-05-08T08:22:23.330Z,24.50
2023-05-08T08:24:51.436Z,28.47
2023-05-08T08:27:19.227Z,29.60
2023-05-08T08:29:46.059Z,29.50
2023-05-08T08:32:13.026Z,28.33
2023-05-08T08:34:39.961Z,34.83
2023-05-08T08:37:07.048Z,36.30
2023-05-08T08:39:34.548Z,33.13
2023-05-08T08:42:02.097Z,30.37
2023-05-08T08:44:29.966Z,30.80
2023-05-08T08:47:00.199Z,30.17
2023-05-08T08:49:34.471Z,34.80
2023-05-08T08:52:11.914Z,33.03
2023-05-08T08:54:41.399Z,33.10
2023-05-08T08:57:09.856Z,34.03
2023-05-08T08:59:39.534Z,36.53
2023-05-08T09:02:11.731Z,36.80
2023-05-08T09:04:39.101Z,34.70
2023-05-08T09:07:07.201Z,31.83
2023-05-08T09:09:35.933Z,29.70
2023-05-08T09:12:02.949Z,34.80
2023-05-08T09:14:29.784Z,30.63
2023-05-08T09:16:56.726Z,27.93
2023-05-08T09:19:27.111Z,29.33
2023-05-08T09:21:58.467Z,30.53
2023-05-08T09:24:25.340Z,27.23
2023-05-08T09:26:52.146Z,28.93
2023-05-08T09:29:21.935Z,31.67
2023-05-08T09:31:53.038Z,28.67
2023-05-08T09:34:24.757Z,28.90
2023-05-08T09:36:51.629Z,34.23
2023-05-08T09:39:25.956Z,31.30
2023-05-08T09:42:03.587Z,33.73
2023-05-08T09:44:45.277Z,31.07
2023-05-08T09:47:13.156Z,30.97
2023-05-08T09:49:40.711Z,33.13
2023-05-08T09:52:08.502Z,39.13
2023-05-08T09:54:35.476Z,35.53
2023-05-08T09:57:12.858Z,34.63
2023-05-08T09:59:39.712Z,38.60
2023-05-08T10:02:12.969Z,38.57
2023-05-08T10:04:40.050Z,36.93
2023-05-08T10:07:07.146Z,36.60
2023-05-08T10:09:46.890Z,37.03
2023-05-08T10:12:17.346Z,36.73
2023-05-08T10:14:46.368Z,35.07
2023-05-08T10:17:15.599Z,34.23
2023-05-08T10:19:46.129Z,36.93
2023-05-08T10:22:15.823Z,35.43
2023-05-08T10:24:45.607Z,38.10
2023-05-08T10:27:19.573Z,39.93
2023-05-08T10:29:58.784Z,35.70
2023-05-08T10:32:28.582Z,38.23
2023-05-08T10:35:03.706Z,38.70
2023-05-08T10:37:31.221Z,37.10
2023-05-08T10:39:58.898Z,39.47
2023-05-08T10:42:27.727Z,38.33
2023-05-08T10:44:55.589Z,31.93
2023-05-08T10:47:53.695Z,35.70
2023-05-08T10:50:56.576Z,33.30
2023-05-08T10:53:53.998Z,34.40
2023-05-08T10:56:28.926Z,31.57
2023-05-08T10:58:57.634Z,33.30
2023-05-08T11:01:25.358Z,36.47
2023-05-08T11:03:52.971Z,37.00
2023-05-08T11:06:49.174Z,31.50
2023-05-08T11:09:23.161Z,32.73
2023-05-08T11:12:00.429Z,34.87
2023-05-08T11:14:28.114Z,39.77
2023-05-08T11:16:55.018Z,35.63
2023-05-08T11:19:23.601Z,34.13
2023-05-08T11:22:19.320Z,37.40
2023-05-08T11:24:54.941Z,33.00
2023-05-08T11:27:51.151Z,32.47
2023-05-08T11:30:38.018Z,36.83
2023-05-08T11:33:05.256Z,34.50
2023-05-08T11:35:44.171Z,37.93
2023-05-08T11:38:23.227Z,36.13
2023-05-08T11:41:08.883Z,34.03
2023-05-08T11:43:38.586Z,34.57
2023-05-08T11:46:15.410Z,34.80
2023-05-08T11:48:42.427Z,33.57
2023-05-08T11:51:09.986Z,38.47
2023-05-08T11:53:38.075Z,34.13
2023-05-08T11:56:05.303Z,32.07
2023-05-08T11:58:32.234Z,31.93
2023-05-08T12:00:59.070Z,30.03
2023-05-08T12:03:26.142Z,28.83
2023-05-08T12:05:57.169Z,35.40
2023-05-08T12:08:24.144Z,30.27
2023-05-08T12:10:59.976Z,30.20
2023-05-08T12:13:29.432Z,26.63
2023-05-08T12:15:57.667Z,30.30
2023-05-08T12:18:26.785Z,31.43
2023-05-08T12:20:59.260Z,30.97
2023-05-08T12:23:29.454Z,31.93
2023-05-08T12:26:00.191Z,29.47
2023-05-08T12:28:27.480Z,28.17
2023-05-08T12:30:54.534Z,30.53
2023-05-08T12:33:21.802Z,26.93
2023-05-08T12:35:49.126Z,30.73
2023-05-08T12:38:17.168Z,29.77
2023-05-08T12:40:44.948Z,26.93
2023-05-08T12:43:12.104Z,27.47
2023-05-08T12:45:41.381Z,27.63
2023-05-08T12:48:12.258Z,27.17
2023-05-08T12:50:44.892Z,27.53
2023-05-08T12:53:13.925Z,26.57
2023-05-08T12:55:52.895Z,28.23
2023-05-08T12:58:21.132Z,24.77
2023-05-08T13:00:50.065Z,26.30
2023-05-08T13:03:28.533Z,25.50
2023-05-08T13:05:58.385Z,28.57
2023-05-08T13:08:32.206Z,24.07
2023-05-08T13:10:59.891Z,23.93
2023-05-08T13:13:30.424Z,25.47
2023-05-08T13:15:57.714Z,25.23
2023-05-08T13:18:28.208Z,22.53
2023-05-08T13:20:56.196Z,22.10
2023-05-08T13:23:23.587Z,26.17
2023-05-08T13:25:51.279Z,25.10
2023-05-08T13:28:18.327Z,23.63
2023-05-08T13:30:45.211Z,24.80
2023-05-08T13:33:12.193Z,24.67
2023-05-08T13:35:39.347Z,23.63
2023-05-08T13:38:06.343Z,23.43
2023-05-08T13:40:33.472Z,25.27
2023-05-08T13:43:00.411Z,27.00
2023-05-08T13:45:27.422Z,24.13
2023-05-08T13:47:54.745Z,24.57
2023-05-08T13:50:22.359Z,24.00
2023-05-08T13:52:51.688Z,25.70
2023-05-08T13:55:22.763Z,28.50
2023-05-08T13:57:49.796Z,26.43
2023-05-08T14:00:17.461Z,26.23
2023-05-08T14:02:44.484Z,25.97
2023-05-08T14:05:11.743Z,24.90
2023-05-08T14:07:38.981Z,26.27
2023-05-08T14:10:06.189Z,25.87
2023-05-08T14:12:36.469Z,25.20
2023-05-08T14:15:07.080Z,28.73
2023-05-08T14:17:34.071Z,28.93
2023-05-08T14:20:01.027Z,28.03
2023-05-08T14:22:27.898Z,29.20
2023-05-08T14:24:54.991Z,31.27
2023-05-08T14:27:21.981Z,32.83
2023-05-08T14:29:49.307Z,32.10
2023-05-08T14:32:16.172Z,35.27
2023-05-08T14:34:43.010Z,34.33
2023-05-08T14:37:09.854Z,31.53
2023-05-08T14:39:36.760Z,32.63
2023-05-08T14:44:33.473Z,35.20
2023-05-08T14:47:00.433Z,37.27
2023-05-08T14:52:14.189Z,39.00
2023-05-08T14:54:41.188Z,36.43
2023-05-08T14:57:08.158Z,38.93
2023-05-08T14:59:34.972Z,34.43
2023-05-08T15:02:02.137Z,35.63
2023-05-08T15:04:29.044Z,35.97
2023-05-08T15:06:55.915Z,36.23
2023-05-08T15:09:22.742Z,39.47
2023-05-08T15:11:49.594Z,38.60
2023-05-08T15:14:16.391Z,35.00
2023-05-08T15:16:43.334Z,36.57
2023-05-08T15:19:10.432Z,35.80
2023-05-08T15:21:37.245Z,35.33
2023-05-08T15:24:04.364Z,31.00
2023-05-08T15:26:31.128Z,31.37
2023-05-08T15:28:57.970Z,30.47
2023-05-08T15:31:24.813Z,34.30
2023-05-08T15:33:51.750Z,30.93
2023-05-08T15:36:18.587Z,29.40
2023-05-08T15:38:45.566Z,28.77
2023-05-08T15:41:15.054Z,33.73
2023-05-08T15:43:43.038Z,31.77
2023-05-08T15:46:10.138Z,27.00
2023-05-08T15:48:37.229Z,28.87
2023-05-08T15:51:04.174Z,34.23
2023-05-08T15:53:30.997Z,27.53
2023-05-08T15:55:57.788Z,28.73
2023-05-08T15:58:24.894Z,28.33
2023-05-08T16:00:52.136Z,29.47
2023-05-08T16:03:19.445Z,28.53
2023-05-08T16:05:46.547Z,29.13
2023-05-08T16:08:13.889Z,29.47
2023-05-08T16:10:41.896Z,31.87
2023-05-08T16:13:09.130Z,28.27
2023-05-08T16:15:36.211Z,36.63
2023-05-08T16:18:03.509Z,27.87
2023-05-08T16:20:31.528Z,29.07
2023-05-08T16:22:59.809Z,26.53
2023-05-08T16:25:26.636Z,28.27
2023-05-08T16:27:53.557Z,27.83
2023-05-08T16:30:20.528Z,26.00
2023-05-08T16:32:47.538Z,24.40
2023-05-08T16:35:15.058Z,26.77
2023-05-08T16:37:42.411Z,29.50
2023-05-08T16:40:10.048Z,26.00
2023-05-08T16:42:37.333Z,24.43
2023-05-08T16:45:08.239Z,24.27
2023-05-08T16:47:35.542Z,22.57
2023-05-08T16:50:03.225Z,31.27
2023-05-08T16:52:30.528Z,43.03
2023-05-08T16:54:57.436Z,40.30
2023-05-08T16:57:24.423Z,37.47
2023-05-08T16:59:52.035Z,37.80
2023-05-08T17:02:19.156Z,38.13
2023-05-08T17:04:47.288Z,32.17
2023-05-08T17:07:15.619Z,30.80
2023-05-08T17:09:42.673Z,29.23
2023-05-08T17:12:10.059Z,30.20
2023-05-08T17:14:40.806Z,31.57
2023-05-08T17:17:08.202Z,28.37
2023-05-08T17:19:35.212Z,26.33
2023-05-08T17:22:02.562Z,28.80
2023-05-08T17:24:32.741Z,29.03
2023-05-08T17:26:59.743Z,29.60
2023-05-08T17:29:26.608Z,26.00
2023-05-08T17:31:53.549Z,25.60
2023-05-08T17:34:20.851Z,25.70
2023-05-08T17:36:47.771Z,25.73
2023-05-08T17:39:14.933Z,28.93
2023-05-08T17:41:41.790Z,27.23
2023-05-08T17:44:08.615Z,28.67
2023-05-08T17:46:35.463Z,31.20
2023-05-08T17:49:02.316Z,35.60
2023-05-08T17:51:29.321Z,34.33
2023-05-08T17:53:56.686Z,35.00
2023-05-08T17:56:23.983Z,34.10
2023-05-08T17:58:52.549Z,37.50
2023-05-08T18:01:20.373Z,33.97
2023-05-08T18:03:50.866Z,34.23
2023-05-08T18:06:18.184Z,36.20
2023-05-08T18:08:47.079Z,39.90
2023-05-08T18:11:22.400Z,34.13
2023-05-08T18:13:50.287Z,38.60
2023-05-08T18:16:18.842Z,34.40
2023-05-08T18:18:45.789Z,37.37
2023-05-08T18:21:12.788Z,38.20
2023-05-08T18:23:39.950Z,41.97
2023-05-08T18:26:07.562Z,35.70
2023-05-08T18:28:36.218Z,38.33
2023-05-08T18:31:03.440Z,35.03
2023-05-08T18:33:30.309Z,42.60
2023-05-08T18:35:57.238Z,36.00
2023-05-08T18:38:24.217Z,38.67
2023-05-08T18:40:51.112Z,38.80
2023-05-08T18:43:17.899Z,37.93
2023-05-08T18:45:44.819Z,39.40
2023-05-08T18:48:11.636Z,37.87
2023-05-08T18:50:38.640Z,38.60
2023-05-08T18:53:06.407Z,37.90
2023-05-08T18:55:33.352Z,38.33
2023-05-08T18:58:00.177Z,38.73
2023-05-08T19:00:27.047Z,37.60
2023-05-08T19:02:54.024Z,35.63
2023-05-08T19:05:21.197Z,37.17
2023-05-08T19:07:48.091Z,37.90
2023-05-08T19:10:15.218Z,40.47
2023-05-08T19:12:42.863Z,40.60
2023-05-08T19:15:13.411Z,41.20
2023-05-08T19:17:40.787Z,41.50
2023-05-08T19:20:08.270Z,39.97
2023-05-08T19:22:35.961Z,42.53
2023-05-08T19:25:03.446Z,44.83
2023-05-08T19:27:32.058Z,39.93
2023-05-08T19:29:59.063Z,45.23
2023-05-08T19:32:26.133Z,44.47
2023-05-08T19:34:53.586Z,42.37
2023-05-08T19:37:20.458Z,43.73
2023-05-08T19:39:47.374Z,43.13
2023-05-08T19:42:14.221Z,46.53
2023-05-08T19:44:41.252Z,45.97
2023-05-08T19:47:08.147Z,45.97
2023-05-08T19:49:35.043Z,43.07
2023-05-08T19:52:01.962Z,47.20
2023-05-08T19:54:30.325Z,49.00
2023-05-08T19:56:57.466Z,47.70
2023-05-08T19:59:24.431Z,48.17
2023-05-08T20:01:51.423Z,47.97
2023-05-08T20:04:18.311Z,45.57
2023-05-08T20:06:47.959Z,46.90
2023-05-08T20:09:14.815Z,44.37
2023-05-08T20:11:41.682Z,45.93
2023-05-08T20:14:08.821Z,45.00
2023-05-08T20:16:36.042Z,43.83
2023-05-08T20:19:03.089Z,45.13
2023-05-08T20:21:32.422Z,45.37
2023-05-08T20:23:59.795Z,45.33
2023-05-08T20:26:29.432Z,46.83
2023-05-08T20:28:56.970Z,45.43
2023-05-08T20:31:25.739Z,49.07
2023-05-08T20:33:52.763Z,46.00
2023-05-08T20:36:20.543Z,42.60
2023-05-08T20:38:47.540Z,44.60
2023-05-08T20:41:14.426Z,45.93
2023-05-08T20:43:41.308Z,48.70
2023-05-08T20:46:08.413Z,45.00
2023-05-08T20:48:35.364Z,44.03
2023-05-08T20:51:02.204Z,43.80
2023-05-08T20:53:29.175Z,45.20
2023-05-08T20:56:05.788Z,48.63
2023-05-08T20:58:32.624Z,47.70
2023-05-08T21:00:59.470Z,43.13
2023-05-08T21:03:26.347Z,45.70
2023-05-08T21:05:55.087Z,45.77
2023-05-08T21:08:23.686Z,47.17
2023-05-08T21:10:51.881Z,47.57
2023-05-08T21:13:19.318Z,44.07
2023-05-08T21:15:50.318Z,48.30
2023-05-08T21:18:17.422Z,44.87
2023-05-08T21:20:50.351Z,45.40
2023-05-08T21:23:18.138Z,44.97
2023-05-08T21:25:48.638Z,43.90
2023-05-08T21:28:16.473Z,47.43
2023-05-08T21:30:44.294Z,48.13
2023-05-08T21:33:13.683Z,48.23
2023-05-08T21:35:41.752Z,46.23
2023-05-08T21:38:09.316Z,44.63
2023-05-08T21:40:36.159Z,42.87
2023-05-08T21:43:02.942Z,38.60
2023-05-08T21:45:31.326Z,41.87
2023-05-08T21:47:58.795Z,39.03
2023-05-08T21:50:26.110Z,38.57
2023-05-08T21:52:53.289Z,34.67
2023-05-08T21:55:21.047Z,35.90
2023-05-08T21:57:48.261Z,39.50
2023-05-08T22:00:16.553Z,34.60
2023-05-08T22:02:43.388Z,38.97
2023-05-08T22:05:10.423Z,34.87
2023-05-08T22:07:37.230Z,32.17
2023-05-08T22:10:04.397Z,35.93
2023-05-08T22:12:31.167Z,35.60
2023-05-08T22:14:57.996Z,33.97
2023-05-08T22:17:24.929Z,34.27
2023-05-08T22:19:51.773Z,31.53
2023-05-08T22:22:18.556Z,35.47
2023-05-08T22:24:45.372Z,31.30
2023-05-08T22:27:12.193Z,30.70
2023-05-08T22:29:38.993Z,35.43
2023-05-08T22:32:06.035Z,36.77
2023-05-08T22:34:32.857Z,34.00
2023-05-08T22:36:59.635Z,35.10
2023-05-08T22:39:26.518Z,34.77
2023-05-08T22:41:54.271Z,35.47
2023-05-08T22:44:21.345Z,35.30
2023-05-08T22:46:48.239Z,33.93
2023-05-08T22:49:15.123Z,35.50
2023-05-08T22:51:42.168Z,37.73
2023-05-08T22:54:08.991Z,35.43
2023-05-08T22:56:35.866Z,37.70
2023-05-08T22:59:02.740Z,35.47
2023-05-08T23:01:29.675Z,38.07
2023-05-08T23:03:56.634Z,34.83
2023-05-08T23:06:24.248Z,40.97
2023-05-08T23:08:51.033Z,38.03
2023-05-08T23:11:17.897Z,37.80
2023-05-08T23:13:44.730Z,41.17
2023-05-08T23:16:11.551Z,43.73
2023-05-08T23:18:38.879Z,38.80
2023-05-08T23:21:07.440Z,39.97
2023-05-08T23:23:34.965Z,37.80
2023-05-08T23:26:04.868Z,42.23
2023-05-08T23:28:34.063Z,44.03
2023-05-08T23:31:01.710Z,40.73
2023-05-08T23:33:28.842Z,40.13
2023-05-08T23:35:59.088Z,39.17
2023-05-08T23:38:26.234Z,44.13
2023-05-08T23:40:53.014Z,42.73
2023-05-08T23:43:19.853Z,43.20
2023-05-08T23:45:46.801Z,43.60
2023-05-08T23:48:13.608Z,44.30
2023-05-08T23:50:41.735Z,38.93
2023-05-08T23:53:08.604Z,38.77
2023-05-08T23:55:37.271Z,38.27
2023-05-08T23:58:04.711Z,39.60
